Time;durP1;ratioP1;P1;durP2;ratioP2;P2;SDS_P1;SDS_P2;PMS_P1;PMS_P2;Temp;Humidity;BMP_temperature;BMP_pressure;BME280_temperature;BME280_humidity;BME280_pressure;Samples;Min_cycle;Max_cycle;Signal;HPM_P1;HPM_P2
2024/01/11 00:00:35;;;;;;;43.95;20.98;;;-3.40;99.90;;;;;;5050869;28;20135;-67
2024/01/11 00:03:00;;;;;;;39.88;19.58;;;-3.50;99.90;;;;;;5068350;28;20040;-67
2024/01/11 00:05:26;;;;;;;38.35;21.13;;;-3.40;99.90;;;;;;5049144;28;20404;-67
2024/01/11 00:07:52;;;;;;;41.10;20.63;;;-3.50;99.90;;;;;;5068253;28;20132;-68
2024/01/11 00:10:18;;;;;;;46.63;22.40;;;-3.50;99.90;;;;;;5068030;28;20109;-67
2024/01/11 00:12:44;;;;;;;40.92;19.75;;;-3.60;99.90;;;;;;5033234;28;20051;-67
2024/01/11 00:15:10;;;;;;;38.92;19.80;;;-3.50;99.90;;;;;;5068012;28;20044;-68
2024/01/11 00:17:36;;;;;;;44.78;22.95;;;-3.50;99.90;;;;;;5067682;28;20362;-67
2024/01/11 00:20:02;;;;;;;44.20;21.30;;;-3.60;99.90;;;;;;5049675;28;20040;-67
2024/01/11 00:22:27;;;;;;;43.45;21.17;;;-3.50;99.90;;;;;;5067547;28;20059;-67
2024/01/11 00:24:53;;;;;;;40.35;21.88;;;-3.50;99.90;;;;;;5049557;28;20043;-66
2024/01/11 00:27:19;;;;;;;39.50;20.92;;;-3.50;99.90;;;;;;5067953;28;20056;-68
2024/01/11 00:29:44;;;;;;;39.70;19.17;;;-3.50;99.90;;;;;;5067903;28;20048;-67
2024/01/11 00:32:10;;;;;;;39.65;20.17;;;-3.50;99.90;;;;;;5068106;28;20072;-67
2024/01/11 00:34:36;;;;;;;40.15;20.23;;;-3.50;99.90;;;;;;5068168;28;20043;-67
2024/01/11 00:37:02;;;;;;;40.15;20.88;;;-3.50;99.90;;;;;;5067954;28;20139;-67
2024/01/11 00:39:29;;;;;;;37.65;19.65;;;-3.50;99.90;;;;;;5049403;28;20053;-67
2024/01/11 00:41:55;;;;;;;37.88;20.42;;;-3.50;99.90;;;;;;5067624;28;20123;-67
2024/01/11 00:44:20;;;;;;;44.55;21.23;;;-3.50;99.90;;;;;;5067554;28;20115;-67
2024/01/11 00:46:46;;;;;;;43.83;21.02;;;-3.60;99.90;;;;;;5049296;28;20044;-67
2024/01/11 00:49:12;;;;;;;43.97;23.30;;;-3.60;99.90;;;;;;5049486;28;20040;-67
2024/01/11 00:51:37;;;;;;;42.35;20.30;;;-3.60;99.90;;;;;;5049279;28;20085;-67
2024/01/11 00:54:03;;;;;;;36.67;19.65;;;-3.60;99.90;;;;;;5049092;28;20187;-68
2024/01/11 00:56:29;;;;;;;41.35;20.75;;;-3.70;99.90;;;;;;5049373;28;20068;-68
2024/01/11 00:58:55;;;;;;;42.03;20.67;;;-3.80;99.90;;;;;;5067304;28;20060;-68
2024/01/11 01:01:20;;;;;;;43.60;21.90;;;-3.70;99.90;;;;;;5049362;28;20127;-67
2024/01/11 01:03:46;;;;;;;44.80;22.40;;;-3.80;99.90;;;;;;5049196;28;20380;-67
2024/01/11 01:06:12;;;;;;;41.15;21.13;;;-3.70;99.90;;;;;;5067556;28;20060;-67
2024/01/11 01:08:37;;;;;;;43.30;21.65;;;-3.70;99.90;;;;;;5049022;28;20088;-67
2024/01/11 01:11:03;;;;;;;48.80;22.58;;;-3.70;99.90;;;;;;5067430;28;20492;-67
2024/01/11 01:13:29;;;;;;;44.35;22.25;;;-3.70;99.90;;;;;;5048980;28;20106;-67
2024/01/11 01:15:55;;;;;;;43.42;21.27;;;-3.80;99.90;;;;;;5067209;28;20040;-67
2024/01/11 01:18:21;;;;;;;43.88;21.70;;;-3.80;99.90;;;;;;5070621;28;20098;-67
2024/01/11 01:20:46;;;;;;;44.35;21.90;;;-3.80;99.90;;;;;;5052912;28;20051;-67
2024/01/11 01:23:12;;;;;;;43.78;21.60;;;-3.80;99.90;;;;;;5052479;28;20059;-67
2024/01/11 01:25:38;;;;;;;41.67;21.27;;;-3.70;99.90;;;;;;5070988;28;20040;-67
2024/01/11 01:28:04;;;;;;;47.30;22.17;;;-3.70;99.90;;;;;;5070603;28;20102;-67
2024/01/11 01:30:29;;;;;;;46.90;22.17;;;-3.80;99.90;;;;;;5052588;28;20052;-67
2024/01/11 01:32:56;;;;;;;41.90;22.10;;;-3.70;99.90;;;;;;5070825;28;20079;-67
2024/01/11 01:35:21;;;;;;;45.20;21.30;;;-3.70;99.90;;;;;;5052553;28;20112;-67
2024/01/11 01:37:47;;;;;;;44.67;21.23;;;-3.70;99.90;;;;;;5052483;28;20117;-67
2024/01/11 01:40:13;;;;;;;47.75;22.33;;;-3.70;99.90;;;;;;5052634;28;20045;-67
2024/01/11 01:42:46;;;;;;;46.70;21.05;;;-3.70;99.90;;;;;;5070478;28;20123;-67
2024/01/11 01:45:12;;;;;;;44.97;21.20;;;-3.70;99.90;;;;;;5052601;28;20131;-67
2024/01/11 01:47:40;;;;;;;45.20;21.20;;;-3.80;99.90;;;;;;5070834;28;20044;-67
2024/01/11 01:50:07;;;;;;;49.72;22.65;;;-3.80;99.90;;;;;;5070385;28;20066;-66
2024/01/11 01:52:34;;;;;;;41.17;21.13;;;-3.70;99.90;;;;;;5070276;28;20045;-67
2024/01/11 01:55:02;;;;;;;41.35;18.75;;;-3.80;99.90;;;;;;5052663;28;20056;-67
2024/01/11 01:57:30;;;;;;;47.75;21.65;;;-3.80;99.90;;;;;;5070059;28;20103;-67
2024/01/11 01:59:56;;;;;;;45.05;21.45;;;-3.90;99.90;;;;;;5070325;28;20040;-67
2024/01/11 02:02:22;;;;;;;40.40;20.50;;;-3.90;99.90;;;;;;5052656;28;20153;-67
2024/01/11 02:04:48;;;;;;;45.92;22.65;;;-3.90;99.90;;;;;;5052268;28;20048;-67
2024/01/11 02:07:15;;;;;;;46.35;20.92;;;-4.00;99.90;;;;;;5052245;28;20131;-67
2024/01/11 02:09:42;;;;;;;44.97;21.58;;;-3.90;99.90;;;;;;5070606;28;20051;-67
2024/01/11 02:12:10;;;;;;;45.85;21.88;;;-3.80;99.90;;;;;;5052187;28;20071;-67
2024/01/11 02:14:37;;;;;;;43.83;21.38;;;-3.90;99.90;;;;;;5051920;28;20166;-67
2024/01/11 02:17:03;;;;;;;49.97;21.17;;;-4.00;99.90;;;;;;5070128;28;20056;-67
2024/01/11 02:19:29;;;;;;;43.83;21.35;;;-4.00;99.90;;;;;;5052119;28;20054;-67
2024/01/11 02:21:56;;;;;;;48.25;22.02;;;-4.00;99.90;;;;;;5051440;28;20052;-67
2024/01/11 02:24:22;;;;;;;44.25;21.25;;;-4.00;99.90;;;;;;5069872;28;20073;-67
2024/01/11 02:27:02;;;;;;;43.63;21.70;;;-4.00;99.90;;;;;;5069549;28;20040;-66
2024/01/11 02:29:29;;;;;;;47.33;22.10;;;-3.90;99.90;;;;;;5050324;28;20084;-67
2024/01/11 02:31:55;;;;;;;42.88;21.13;;;-4.00;99.90;;;;;;5051713;28;20048;-69
2024/01/11 02:34:23;;;;;;;44.38;20.77;;;-3.90;99.90;;;;;;5051768;28;20376;-68
2024/01/11 02:36:50;;;;;;;47.55;20.75;;;-3.80;99.90;;;;;;5051597;28;20083;-68
2024/01/11 02:39:18;;;;;;;43.60;21.15;;;-3.80;99.90;;;;;;5069725;28;20149;-68
2024/01/11 02:41:44;;;;;;;43.58;20.48;;;-3.90;99.90;;;;;;5069316;28;20412;-68
2024/01/11 02:44:10;;;;;;;43.17;21.85;;;-3.90;99.90;;;;;;5069406;28;20055;-68
2024/01/11 02:46:36;;;;;;;44.95;19.73;;;-4.00;99.90;;;;;;5069765;28;20060;-68
2024/01/11 02:49:02;;;;;;;44.50;21.05;;;-4.00;99.90;;;;;;5051173;28;20052;-68
2024/01/11 02:51:28;;;;;;;45.65;22.38;;;-4.00;99.90;;;;;;5069737;28;20044;-67
2024/01/11 02:53:53;;;;;;;47.00;21.38;;;-4.00;99.90;;;;;;5050939;28;20078;-67
2024/01/11 02:56:19;;;;;;;45.33;20.10;;;-3.90;99.90;;;;;;5034325;28;20045;-67
2024/01/11 02:58:45;;;;;;;47.03;21.40;;;-4.00;99.90;;;;;;5050855;28;20056;-68
2024/01/11 03:01:10;;;;;;;46.60;20.98;;;-4.00;99.90;;;;;;5051494;28;20045;-67
2024/01/11 03:03:36;;;;;;;47.35;22.10;;;-4.00;99.90;;;;;;5069741;28;20051;-67
2024/01/11 03:06:02;;;;;;;43.42;20.60;;;-4.00;99.90;;;;;;5069591;28;20125;-68
2024/01/11 03:08:29;;;;;;;45.80;21.17;;;-4.10;99.90;;;;;;5069170;28;20477;-68
2024/01/11 03:10:55;;;;;;;47.28;21.60;;;-4.10;99.90;;;;;;5069205;28;20044;-68
2024/01/11 03:13:20;;;;;;;45.40;21.13;;;-4.10;99.90;;;;;;5069065;28;20121;-67
2024/01/11 03:15:46;;;;;;;50.28;23.75;;;-4.20;99.90;;;;;;5051102;28;20131;-68
2024/01/11 03:18:12;;;;;;;48.78;21.23;;;-4.20;99.90;;;;;;5072170;28;20640;-68
2024/01/11 03:20:38;;;;;;;44.08;22.15;;;-4.20;99.90;;;;;;5089148;28;20055;-67
2024/01/11 03:23:03;;;;;;;54.22;22.70;;;-4.20;99.90;;;;;;5070639;28;20563;-68
2024/01/11 03:25:30;;;;;;;46.15;21.05;;;-4.20;99.90;;;;;;5088907;28;20499;-68
2024/01/11 03:27:55;;;;;;;47.88;21.40;;;-4.20;99.90;;;;;;5089070;28;20044;-68
2024/01/11 03:30:21;;;;;;;44.72;21.60;;;-4.20;99.90;;;;;;5089179;28;20090;-67
2024/01/11 03:32:47;;;;;;;43.55;20.88;;;-4.20;99.90;;;;;;5070614;28;20080;-68
2024/01/11 03:35:13;;;;;;;46.08;21.67;;;-4.10;99.90;;;;;;5054167;28;20071;-68
2024/01/11 03:37:38;;;;;;;43.13;21.00;;;-4.10;99.90;;;;;;5089129;28;20122;-68
2024/01/11 03:40:05;;;;;;;48.17;21.33;;;-4.10;99.90;;;;;;5088904;28;20051;-68
2024/01/11 03:42:31;;;;;;;44.50;21.33;;;-4.10;99.90;;;;;;5070842;28;20143;-68
2024/01/11 03:44:56;;;;;;;46.63;21.63;;;-4.20;99.90;;;;;;5088853;28;20036;-67
2024/01/11 03:47:22;;;;;;;43.05;21.30;;;-4.10;99.90;;;;;;5071026;28;20059;-67
2024/01/11 03:49:48;;;;;;;46.58;21.05;;;-4.00;99.90;;;;;;5070823;28;20131;-67
2024/01/11 03:52:13;;;;;;;41.30;20.42;;;-4.10;99.90;;;;;;5089276;28;20805;-68
2024/01/11 03:54:39;;;;;;;53.05;22.52;;;-4.20;99.90;;;;;;5088275;28;20108;-67
2024/01/11 03:57:06;;;;;;;44.53;21.10;;;-4.30;99.90;;;;;;5069925;28;20091;-68
2024/01/11 03:59:32;;;;;;;53.20;23.83;;;-4.30;99.90;;;;;;5070038;28;20115;-67
2024/01/11 04:01:59;;;;;;;51.65;23.33;;;-4.20;99.90;;;;;;5088916;28;20127;-67
2024/01/11 04:04:24;;;;;;;49.80;22.05;;;-4.20;99.90;;;;;;5088521;28;20119;-67
2024/01/11 04:06:52;;;;;;;50.90;22.90;;;-4.20;99.90;;;;;;5070396;28;20048;-67
2024/01/11 04:09:17;;;;;;;48.47;22.95;;;-4.10;99.90;;;;;;5087798;28;20040;-67
2024/01/11 04:11:43;;;;;;;50.00;22.60;;;-4.10;99.90;;;;;;5088303;28;20044;-67
2024/01/11 04:14:09;;;;;;;50.22;21.77;;;-4.20;99.90;;;;;;5088031;28;20618;-67
2024/01/11 04:16:41;;;;;;;52.50;23.38;;;-4.10;99.90;;;;;;5070008;28;20131;-67
2024/01/11 04:19:06;;;;;;;45.50;21.07;;;-4.10;99.90;;;;;;5069960;28;20043;-67
2024/01/11 04:21:32;;;;;;;54.40;23.27;;;-4.20;99.90;;;;;;5069219;28;20549;-67
2024/01/11 04:23:58;;;;;;;48.30;23.67;;;-4.00;99.90;;;;;;5069478;28;20040;-67
2024/01/11 04:26:24;;;;;;;50.72;22.40;;;-4.00;99.90;;;;;;5069573;28;20542;-67
2024/01/11 04:28:51;;;;;;;48.67;21.70;;;-4.00;99.90;;;;;;5088162;28;20376;-67
2024/01/11 04:31:17;;;;;;;48.67;22.42;;;-4.20;99.90;;;;;;5088308;28;20364;-67
2024/01/11 04:33:43;;;;;;;47.67;21.98;;;-4.10;99.90;;;;;;5088219;28;20157;-67
2024/01/11 04:36:09;;;;;;;47.65;21.88;;;-4.10;99.90;;;;;;5069783;28;20123;-67
2024/01/11 04:38:36;;;;;;;50.78;22.05;;;-4.10;99.90;;;;;;5087894;28;20412;-67
2024/01/11 04:41:02;;;;;;;46.85;21.23;;;-4.10;99.90;;;;;;5087881;28;20080;-67
2024/01/11 04:43:27;;;;;;;48.30;22.48;;;-4.10;99.90;;;;;;5088115;28;20128;-67
2024/01/11 04:45:53;;;;;;;46.08;21.00;;;-4.00;99.90;;;;;;5069815;28;20112;-67
2024/01/11 04:48:19;;;;;;;49.30;21.08;;;-4.00;99.90;;;;;;5088126;28;20048;-67
2024/01/11 04:50:45;;;;;;;46.33;21.95;;;-4.20;99.90;;;;;;5069622;28;20047;-67
2024/01/11 04:53:11;;;;;;;47.00;21.52;;;-4.20;99.90;;;;;;5068717;28;20123;-67
2024/01/11 04:55:37;;;;;;;55.25;22.67;;;-4.20;99.90;;;;;;5087654;28;20201;-67
2024/01/11 04:58:03;;;;;;;47.17;21.50;;;-4.10;99.90;;;;;;5087268;28;20067;-67
2024/01/11 05:00:28;;;;;;;49.08;21.10;;;-4.20;99.90;;;;;;5069617;28;20381;-67
2024/01/11 05:02:55;;;;;;;43.83;20.60;;;-4.10;99.90;;;;;;5087852;28;20047;-67
2024/01/11 05:05:20;;;;;;;46.45;22.30;;;-4.20;99.90;;;;;;5068838;28;20040;-67
2024/01/11 05:07:46;;;;;;;47.03;22.13;;;-4.30;99.90;;;;;;5087369;28;20036;-67
2024/01/11 05:10:12;;;;;;;50.63;22.15;;;-4.20;99.90;;;;;;5069291;28;20483;-67
2024/01/11 05:12:38;;;;;;;49.67;22.02;;;-4.40;99.90;;;;;;5087716;28;20132;-68
2024/01/11 05:15:06;;;;;;;52.38;23.30;;;-4.40;99.90;;;;;;5069182;28;20048;-67
2024/01/11 05:17:31;;;;;;;53.38;23.27;;;-4.30;99.90;;;;;;5069194;28;20059;-68
2024/01/11 05:19:57;;;;;;;53.22;23.33;;;-4.30;99.90;;;;;;5069025;28;20048;-67
2024/01/11 05:22:23;;;;;;;53.65;23.98;;;-4.40;99.90;;;;;;5087043;28;20212;-67
2024/01/11 05:24:49;;;;;;;55.83;23.23;;;-4.40;99.90;;;;;;5069221;28;20157;-67
2024/01/11 05:27:14;;;;;;;50.47;23.40;;;-4.50;99.90;;;;;;5069134;28;20408;-67
2024/01/11 05:29:40;;;;;;;49.58;22.60;;;-4.60;99.90;;;;;;5068910;28;20109;-67
2024/01/11 05:32:06;;;;;;;55.45;24.80;;;-4.60;99.90;;;;;;5069008;28;20418;-67
2024/01/11 05:34:31;;;;;;;55.22;23.33;;;-4.60;99.90;;;;;;5087111;28;20032;-67
2024/01/11 05:36:57;;;;;;;54.22;25.45;;;-4.70;99.90;;;;;;5087323;28;20112;-68
2024/01/11 05:39:23;;;;;;;53.00;23.80;;;-4.60;99.90;;;;;;5086955;28;20475;-67
2024/01/11 05:41:48;;;;;;;61.40;24.90;;;-4.60;99.90;;;;;;5069220;28;20047;-67
2024/01/11 05:44:14;;;;;;;52.33;23.10;;;-4.80;99.90;;;;;;5051984;28;20048;-67
2024/01/11 05:46:40;;;;;;;61.38;26.10;;;-4.70;99.90;;;;;;5068613;28;20131;-67
2024/01/11 05:49:06;;;;;;;50.17;22.60;;;-4.60;99.90;;;;;;5068634;28;20052;-66
2024/01/11 05:51:31;;;;;;;54.30;24.17;;;-4.60;99.90;;;;;;5068429;28;20048;-67
2024/01/11 05:53:57;;;;;;;59.47;23.80;;;-4.60;99.90;;;;;;5068906;28;20052;-67
2024/01/11 05:56:22;;;;;;;50.53;22.88;;;-4.50;99.90;;;;;;5068319;28;20063;-67
2024/01/11 05:58:48;;;;;;;56.00;23.65;;;-4.50;99.90;;;;;;5087202;28;20425;-67
2024/01/11 06:01:14;;;;;;;54.10;24.00;;;-4.30;99.90;;;;;;5068925;28;20044;-67
2024/01/11 06:03:40;;;;;;;49.70;22.20;;;-4.10;99.90;;;;;;5087339;28;20463;-68
2024/01/11 06:06:06;;;;;;;52.53;24.48;;;-4.10;99.90;;;;;;5072029;28;20047;-68
2024/01/11 06:08:32;;;;;;;50.92;23.20;;;-4.00;99.90;;;;;;5072077;28;20048;-68
2024/01/11 06:10:58;;;;;;;53.17;24.20;;;-3.90;99.90;;;;;;5072026;28;20082;-68
2024/01/11 06:13:24;;;;;;;51.38;23.35;;;-3.90;99.90;;;;;;5071669;28;20031;-68
2024/01/11 06:15:50;;;;;;;51.55;22.77;;;-3.90;99.90;;;;;;5071507;28;20039;-68
2024/01/11 06:18:16;;;;;;;53.05;22.77;;;-3.80;99.90;;;;;;5089363;28;20109;-68
2024/01/11 06:20:42;;;;;;;58.55;25.13;;;-3.60;99.90;;;;;;5089803;28;20123;-68
2024/01/11 06:23:07;;;;;;;49.25;22.25;;;-3.50;99.90;;;;;;5089912;28;20119;-68
2024/01/11 06:25:33;;;;;;;59.53;24.40;;;-3.40;99.90;;;;;;5071728;28;20040;-68
2024/01/11 06:27:59;;;;;;;52.00;24.33;;;-3.30;99.90;;;;;;5071888;28;20412;-68
2024/01/11 06:30:25;;;;;;;50.60;23.38;;;-3.40;99.90;;;;;;5090069;28;20040;-68
2024/01/11 06:32:51;;;;;;;54.47;23.98;;;-3.40;99.90;;;;;;5071553;28;20154;-68
2024/01/11 06:35:17;;;;;;;51.70;24.40;;;-3.40;99.90;;;;;;5087505;28;20063;-68
2024/01/11 06:37:43;;;;;;;51.88;22.98;;;-3.40;99.90;;;;;;5082826;28;20070;-68
2024/01/11 06:40:09;;;;;;;54.83;23.90;;;-3.30;99.90;;;;;;5071373;28;20051;-68
2024/01/11 06:42:35;;;;;;;49.38;22.42;;;-3.30;99.90;;;;;;5070726;28;20154;-68
2024/01/11 06:45:01;;;;;;;53.78;25.08;;;-3.30;99.90;;;;;;5071502;28;20044;-68
2024/01/11 06:47:26;;;;;;;51.90;22.30;;;-3.10;99.90;;;;;;5090016;28;20071;-68
2024/01/11 06:49:53;;;;;;;56.13;25.45;;;-3.00;99.90;;;;;;5090223;28;20128;-68
2024/01/11 06:52:19;;;;;;;50.30;22.00;;;-3.00;99.90;;;;;;5090636;28;20039;-68
2024/01/11 06:54:45;;;;;;;52.80;24.17;;;-2.90;99.90;;;;;;5090465;28;20390;-68
2024/01/11 06:57:11;;;;;;;50.90;23.33;;;-2.70;99.90;;;;;;5090177;28;20056;-68
2024/01/11 06:59:37;;;;;;;55.35;25.60;;;-2.70;99.90;;;;;;5090539;28;20158;-68
2024/01/11 07:02:03;;;;;;;51.83;24.55;;;-2.80;99.90;;;;;;5072007;28;20276;-68
2024/01/11 07:04:29;;;;;;;55.83;23.40;;;-2.80;99.90;;;;;;5072539;28;20592;-67
2024/01/11 07:06:55;;;;;;;57.55;25.92;;;-2.70;99.90;;;;;;5073720;28;20058;-68
2024/01/11 07:09:20;;;;;;;53.05;24.95;;;-2.70;99.90;;;;;;5055649;28;20458;-68
2024/01/11 07:11:46;;;;;;;50.90;23.65;;;-2.70;99.90;;;;;;5072427;28;20036;-68
2024/01/11 07:14:12;;;;;;;52.17;24.50;;;-2.70;99.90;;;;;;5089937;28;20093;-68
2024/01/11 07:16:37;;;;;;;58.72;27.88;;;-2.70;99.90;;;;;;5089860;28;20076;-68
2024/01/11 07:19:03;;;;;;;48.35;24.60;;;-2.70;99.90;;;;;;5087887;28;20139;-68
2024/01/11 07:21:29;;;;;;;57.95;27.95;;;-2.70;99.90;;;;;;5089504;28;20548;-69
2024/01/11 07:23:58;;;;;;;57.65;26.85;;;-2.60;99.90;;;;;;5089674;28;20047;-69
2024/01/11 07:26:25;;;;;;;53.80;24.48;;;-2.50;99.90;;;;;;5089415;28;20046;-68
2024/01/11 07:28:51;;;;;;;52.90;24.83;;;-2.50;99.90;;;;;;5089487;28;20108;-68
2024/01/11 07:31:17;;;;;;;51.35;23.55;;;-2.50;99.90;;;;;;5070737;28;20527;-68
2024/01/11 07:33:43;;;;;;;52.65;24.90;;;-2.40;99.90;;;;;;5089503;28;20044;-68
2024/01/11 07:36:09;;;;;;;46.28;22.52;;;-2.40;99.90;;;;;;5070956;28;20677;-68
2024/01/11 07:38:35;;;;;;;51.28;25.40;;;-2.30;99.90;;;;;;5089621;28;20123;-68
2024/01/11 07:41:01;;;;;;;49.65;22.17;;;-2.30;99.90;;;;;;5071983;28;20054;-68
2024/01/11 07:43:28;;;;;;;53.60;24.63;;;-2.30;99.90;;;;;;5071495;28;20048;-68
2024/01/11 07:45:57;;;;;;;52.40;23.08;;;-2.30;99.90;;;;;;5071092;28;20044;-68
2024/01/11 07:48:24;;;;;;;54.28;24.05;;;-2.20;99.90;;;;;;5089423;28;20051;-68
2024/01/11 07:50:49;;;;;;;61.75;25.48;;;-2.20;99.90;;;;;;5089538;28;20104;-68
2024/01/11 07:53:15;;;;;;;51.15;23.35;;;-2.30;99.90;;;;;;5089758;28;20040;-68
2024/01/11 07:55:41;;;;;;;56.05;25.20;;;-2.20;99.90;;;;;;5071175;28;20058;-68
2024/01/11 07:58:07;;;;;;;51.75;23.50;;;-2.10;99.90;;;;;;5089334;28;20060;-68
2024/01/11 08:00:33;;;;;;;50.72;24.20;;;-2.10;99.90;;;;;;5070799;28;20093;-68
2024/01/11 08:03:00;;;;;;;53.75;24.20;;;-2.10;99.90;;;;;;5071092;28;20119;-68
2024/01/11 08:05:26;;;;;;;51.70;24.80;;;-2.00;99.90;;;;;;5070989;28;20085;-68
2024/01/11 08:07:52;;;;;;;50.00;24.38;;;-2.00;99.90;;;;;;5071038;28;20048;-68
2024/01/11 08:10:17;;;;;;;58.03;25.23;;;-1.90;99.90;;;;;;5089287;28;20119;-68
2024/01/11 08:12:43;;;;;;;53.35;23.63;;;-1.90;99.90;;;;;;5070951;28;20036;-68
2024/01/11 08:15:12;;;;;;;51.83;24.60;;;-1.90;99.90;;;;;;5070797;28;20048;-68
2024/01/11 08:17:39;;;;;;;50.47;23.08;;;-1.90;99.90;;;;;;5089260;28;20096;-68
2024/01/11 08:20:07;;;;;;;53.83;24.60;;;-2.00;99.90;;;;;;5089448;28;20115;-68
2024/01/11 08:22:35;;;;;;;52.08;22.60;;;-1.90;99.90;;;;;;5070956;28;20040;-68
2024/01/11 08:25:04;;;;;;;49.60;23.00;;;-1.90;99.90;;;;;;5089289;28;20047;-69
2024/01/11 08:27:33;;;;;;;48.10;24.55;;;-1.80;99.90;;;;;;5088272;28;20118;-68
2024/01/11 08:30:00;;;;;;;53.47;24.75;;;-1.80;99.90;;;;;;5088778;28;20040;-68
2024/01/11 08:32:26;;;;;;;48.83;22.20;;;-1.80;99.90;;;;;;5089185;28;20044;-68
2024/01/11 08:34:52;;;;;;;54.22;26.33;;;-1.80;99.90;;;;;;5071126;28;20475;-68
2024/01/11 08:37:18;;;;;;;62.60;26.95;;;-1.80;99.90;;;;;;5070972;28;20048;-68
2024/01/11 08:39:46;;;;;;;61.17;27.80;;;-1.70;99.90;;;;;;5070936;28;20047;-68
2024/01/11 08:42:12;;;;;;;62.00;28.55;;;-1.70;99.90;;;;;;5070817;28;20035;-68
2024/01/11 08:44:44;;;;;;;64.20;29.42;;;-1.70;99.90;;;;;;5088318;28;20526;-68
2024/01/11 08:47:10;;;;;;;63.10;31.92;;;-1.60;99.90;;;;;;5070781;28;20391;-68
2024/01/11 08:49:39;;;;;;;62.42;30.58;;;-1.70;99.90;;;;;;5070453;28;20048;-69
2024/01/11 08:52:05;;;;;;;60.40;29.20;;;-1.60;99.90;;;;;;5070447;28;20137;-68
2024/01/11 08:54:35;;;;;;;66.97;31.65;;;-1.60;99.90;;;;;;5088672;28;20123;-68
2024/01/11 08:57:01;;;;;;;63.53;29.88;;;-1.60;99.90;;;;;;5088278;28;20135;-68
2024/01/11 08:59:27;;;;;;;60.25;29.42;;;-1.60;99.90;;;;;;5088373;28;20055;-68
2024/01/11 09:01:53;;;;;;;66.63;30.90;;;-1.50;99.90;;;;;;5088895;28;20040;-68
2024/01/11 09:04:19;;;;;;;62.70;30.02;;;-1.40;99.90;;;;;;5070486;28;20036;-68
2024/01/11 09:06:45;;;;;;;53.17;27.52;;;-1.50;99.90;;;;;;5070619;28;20472;-68
2024/01/11 09:09:13;;;;;;;56.22;27.73;;;-1.40;99.90;;;;;;5088713;28;20492;-67
2024/01/11 09:11:40;;;;;;;55.10;25.27;;;-1.30;99.90;;;;;;5088935;28;20040;-67
2024/01/11 09:14:12;;;;;;;60.85;26.05;;;-1.30;99.90;;;;;;5088458;28;20044;-68
2024/01/11 09:16:39;;;;;;;;;;;-1.30;99.90;;;;;;5070556;28;20128;-68
2024/01/11 09:19:05;;;;;;;55.47;24.63;;;-1.20;99.90;;;;;;5053983;28;20700;-68
2024/01/11 09:21:31;;;;;;;49.53;23.25;;;-1.20;99.90;;;;;;5069941;28;20048;-68
2024/01/11 09:23:56;;;;;;;48.58;23.42;;;-1.20;99.90;;;;;;5070226;28;20069;-68
2024/01/11 09:26:22;;;;;;;53.28;24.90;;;-1.20;99.90;;;;;;5070117;28;20040;-68
2024/01/11 09:28:48;;;;;;;55.28;24.58;;;-1.10;99.90;;;;;;5088562;28;20075;-68
2024/01/11 09:31:14;;;;;;;59.45;27.10;;;-1.10;99.90;;;;;;5088581;28;20457;-67
2024/01/11 09:33:40;;;;;;;57.38;25.70;;;-1.10;99.90;;;;;;5088743;28;20119;-68
2024/01/11 09:36:08;;;;;;;54.03;25.65;;;-1.10;99.90;;;;;;5086660;28;20468;-68
2024/01/11 09:38:33;;;;;;;57.90;25.27;;;-1.10;99.90;;;;;;5059858;28;20048;-68
2024/01/11 09:41:12;;;;;;;58.20;25.40;;;-1.00;99.90;;;;;;5053576;28;20389;-67
2024/01/11 09:43:40;;;;;;;56.35;25.65;;;-1.00;99.90;;;;;;5072161;28;20121;-68
2024/01/11 09:46:06;;;;;;;65.70;28.45;;;-1.10;99.90;;;;;;5072095;28;20060;-68
2024/01/11 09:48:37;;;;;;;59.03;28.20;;;-1.00;99.90;;;;;;5071986;28;20433;-67
2024/01/11 09:51:04;;;;;;;49.80;23.50;;;-0.90;99.90;;;;;;5071745;28;20581;-68
2024/01/11 09:53:33;;;;;;;51.97;23.95;;;-0.90;99.90;;;;;;5072026;28;20086;-68
2024/01/11 09:56:00;;;;;;;63.65;28.25;;;-0.80;99.90;;;;;;5071946;28;20047;-67
2024/01/11 09:58:26;;;;;;;57.03;29.48;;;-0.80;99.90;;;;;;5071718;28;20059;-68
2024/01/11 10:00:56;;;;;;;49.88;24.50;;;-0.80;99.90;;;;;;5072141;28;20041;-68
2024/01/11 10:03:26;;;;;;;55.00;24.45;;;-0.70;99.90;;;;;;5054015;28;20048;-68
2024/01/11 10:05:58;;;;;;;56.25;25.42;;;-0.70;99.90;;;;;;5071966;28;20047;-68
2024/01/11 10:08:25;;;;;;;49.67;21.67;;;-0.60;99.90;;;;;;5053705;28;20048;-68
2024/01/11 10:10:50;;;;;;;54.47;24.58;;;-0.60;99.90;;;;;;5071661;28;20414;-67
2024/01/11 10:13:16;;;;;;;54.33;24.77;;;-0.50;99.90;;;;;;5071715;28;20044;-68
2024/01/11 10:15:46;;;;;;;57.22;25.00;;;-0.50;99.90;;;;;;5053571;28;20043;-68
2024/01/11 10:18:12;;;;;;;56.55;24.45;;;-0.50;99.90;;;;;;5053813;28;20395;-68
2024/01/11 10:20:38;;;;;;;50.28;23.98;;;-0.40;99.90;;;;;;5053641;28;20055;-67
2024/01/11 10:23:04;;;;;;;54.67;25.67;;;-0.40;99.90;;;;;;5053668;28;20479;-68
2024/01/11 10:25:29;;;;;;;45.80;22.33;;;-0.40;99.90;;;;;;5053339;28;20059;-68
2024/01/11 10:27:55;;;;;;;50.25;24.52;;;-0.30;99.90;;;;;;5075822;28;20039;-68
2024/01/11 10:30:23;;;;;;;53.05;22.95;;;-0.30;99.90;;;;;;5091540;28;20054;-68
2024/01/11 10:32:49;;;;;;;48.13;23.23;;;-0.30;99.90;;;;;;5073097;28;20479;-67
2024/01/11 10:35:17;;;;;;;53.55;24.05;;;-0.30;99.90;;;;;;5073339;28;20055;-67
2024/01/11 10:37:43;;;;;;;51.95;23.73;;;-0.20;99.90;;;;;;5091452;28;20113;-67
2024/01/11 10:40:12;;;;;;;51.10;21.70;;;-0.20;99.90;;;;;;5091158;28;20052;-67
2024/01/11 10:42:52;;;;;;;49.17;23.15;;;-0.20;99.90;;;;;;5073418;28;20442;-68
2024/01/11 10:45:19;;;;;;;48.60;22.45;;;-0.20;99.90;;;;;;5091448;28;20085;-66
2024/01/11 10:48:07;;;;;;;51.10;24.00;;;-0.20;99.90;;;;;;5091145;28;20525;-66
2024/01/11 10:50:39;;;;;;;56.22;24.20;;;-0.10;99.90;;;;;;5071951;28;20127;-66
2024/01/11 10:53:11;;;;;;;51.25;22.83;;;0.00;99.90;;;;;;5091258;28;20146;-65
2024/01/11 10:55:38;;;;;;;50.10;23.40;;;0.00;99.90;;;;;;5090540;28;20568;-68
2024/01/11 10:58:04;;;;;;;45.33;21.88;;;0.00;99.90;;;;;;5072430;28;20069;-67
2024/01/11 11:00:31;;;;;;;46.80;21.73;;;0.00;99.90;;;;;;5091021;28;20059;-67
2024/01/11 11:03:00;;;;;;;45.40;21.15;;;0.00;99.90;;;;;;5088234;28;20047;-66
2024/01/11 11:05:29;;;;;;;51.30;22.20;;;0.00;99.90;;;;;;5089869;28;20059;-66
2024/01/11 11:07:56;;;;;;;52.83;23.73;;;0.10;99.90;;;;;;5069519;28;20044;-66
2024/01/11 11:10:22;;;;;;;47.97;22.77;;;0.10;99.90;;;;;;5072585;28;20048;-66
2024/01/11 11:12:49;;;;;;;47.85;22.42;;;0.20;99.90;;;;;;5071900;28;20048;-67
2024/01/11 11:15:15;;;;;;;50.83;23.88;;;0.20;99.90;;;;;;5072252;28;20375;-67
2024/01/11 11:17:43;;;;;;;50.35;22.52;;;0.20;99.90;;;;;;5071757;28;20526;-67
2024/01/11 11:20:13;;;;;;;47.25;23.73;;;0.20;99.90;;;;;;5090258;28;20051;-67
2024/01/11 11:22:43;;;;;;;52.30;23.98;;;0.20;99.90;;;;;;5089797;28;20047;-67
2024/01/11 11:25:24;;;;;;;48.60;21.73;;;0.30;99.90;;;;;;5090274;28;20032;-66
2024/01/11 11:27:50;;;;;;;51.83;23.92;;;0.30;99.90;;;;;;5090115;28;20509;-66
2024/01/11 11:30:20;;;;;;;51.85;22.98;;;0.30;99.90;;;;;;5090054;28;20060;-67
2024/01/11 11:32:46;;;;;;;44.85;21.02;;;0.40;99.90;;;;;;5090244;28;20079;-68
2024/01/11 11:35:12;;;;;;;47.50;23.10;;;0.40;99.90;;;;;;5058807;28;20044;-67
2024/01/11 11:37:38;;;;;;;54.33;23.40;;;0.40;99.90;;;;;;5075131;28;20053;-68
2024/01/11 11:40:10;;;;;;;47.25;20.98;;;0.40;99.90;;;;;;5075773;28;20048;-67
2024/01/11 11:42:36;;;;;;;48.78;22.27;;;0.40;99.90;;;;;;5070054;28;20048;-67
2024/01/11 11:45:02;;;;;;;49.33;21.30;;;0.40;99.90;;;;;;5071225;28;20051;-68
2024/01/11 11:47:46;;;;;;;50.58;22.23;;;0.50;99.90;;;;;;5071286;28;20495;-68
2024/01/11 11:50:13;;;;;;;45.28;21.05;;;0.50;99.90;;;;;;5071542;28;20043;-68
2024/01/11 11:52:41;;;;;;;42.42;21.73;;;0.50;99.90;;;;;;5089875;28;20044;-68
2024/01/11 11:55:08;;;;;;;46.95;22.15;;;0.50;99.90;;;;;;5071319;28;20048;-68
2024/01/11 11:57:35;;;;;;;50.17;23.00;;;0.60;99.90;;;;;;5089459;28;20052;-67
2024/01/11 12:00:05;;;;;;;49.28;21.05;;;0.60;99.90;;;;;;5071348;28;20491;-66
2024/01/11 12:02:31;;;;;;;46.95;20.23;;;0.60;99.90;;;;;;5097293;28;20043;-66
2024/01/11 12:04:57;;;;;;;53.83;22.98;;;0.70;99.90;;;;;;5107335;28;20851;-68
2024/01/11 12:07:23;;;;;;;49.03;22.90;;;0.60;99.90;;;;;;5083641;28;20047;-68
2024/01/11 12:09:50;;;;;;;45.08;21.40;;;0.70;99.90;;;;;;5109626;28;20056;-68
2024/01/11 12:12:17;;;;;;;45.03;21.35;;;0.70;99.90;;;;;;5090734;28;20071;-68
2024/01/11 12:14:43;;;;;;;45.20;22.00;;;0.80;99.90;;;;;;5091219;28;20467;-69
2024/01/11 12:17:09;;;;;;;44.83;20.73;;;0.70;99.90;;;;;;5090750;28;20083;-69
2024/01/11 12:19:35;;;;;;;44.20;21.17;;;0.70;99.90;;;;;;5082580;28;20064;-69
2024/01/11 12:22:01;;;;;;;40.40;20.83;;;0.70;99.90;;;;;;5086219;28;20096;-69
2024/01/11 12:24:27;;;;;;;42.83;19.60;;;0.70;99.90;;;;;;5077913;28;20404;-68